Time;durP1;ratioP1;P1;durP2;ratioP2;P2;SDS_P1;SDS_P2;PMS_P1;PMS_P2;Temp;Humidity;BMP_temperature;BMP_pressure;BME280_temperature;BME280_humidity;BME280_pressure;Samples;Min_cycle;Max_cycle;Signal;HPM_P1;HPM_P2
2023/04/30 00:01:17;;;;;;;7.28;3.67;;;6.50;99.90;;;;;;5111684;28;20052;-77
2023/04/30 00:03:45;;;;;;;6.00;3.75;;;6.60;99.80;;;;;;5109840;28;20135;-76
2023/04/30 00:06:12;;;;;;;19.15;5.20;;;6.60;99.80;;;;;;5107105;28;20419;-78
2023/04/30 00:08:41;;;;;;;11.88;4.95;;;6.60;99.60;;;;;;5090449;28;20048;-77
2023/04/30 00:11:08;;;;;;;7.28;3.17;;;6.60;99.60;;;;;;5093616;28;20047;-77
2023/04/30 00:13:35;;;;;;;7.53;3.92;;;6.60;99.90;;;;;;5110675;28;20043;-76
2023/04/30 00:16:02;;;;;;;8.23;4.78;;;6.60;99.80;;;;;;5087788;28;20554;-77
2023/04/30 00:18:30;;;;;;;8.57;4.72;;;6.60;99.60;;;;;;5108528;28;20124;-77
2023/04/30 00:20:59;;;;;;;10.68;4.53;;;6.60;99.70;;;;;;5108713;28;20142;-77
2023/04/30 00:23:26;;;;;;;7.80;3.75;;;6.60;99.90;;;;;;5110322;28;20071;-77
2023/04/30 00:25:55;;;;;;;8.43;4.13;;;6.60;99.90;;;;;;5107796;28;20507;-78
2023/04/30 00:28:22;;;;;;;10.07;3.90;;;6.60;99.90;;;;;;5110933;28;20515;-78
2023/04/30 00:30:49;;;;;;;8.77;3.92;;;6.70;99.90;;;;;;5107500;28;20051;-77
2023/04/30 00:33:17;;;;;;;7.50;3.60;;;6.70;99.90;;;;;;5109924;28;20047;-77
2023/04/30 00:35:44;;;;;;;5.03;3.20;;;6.70;99.90;;;;;;5089350;28;20040;-77
2023/04/30 00:38:11;;;;;;;5.80;2.90;;;6.70;99.90;;;;;;5101733;28;20233;-77
2023/04/30 00:40:41;;;;;;;6.20;3.45;;;6.70;99.90;;;;;;5110318;28;20055;-77
2023/04/30 00:43:10;;;;;;;4.60;3.08;;;6.80;99.80;;;;;;5108260;28;20443;-77
2023/04/30 00:45:37;;;;;;;5.82;3.40;;;6.80;99.70;;;;;;5111309;28;20058;-77
2023/04/30 00:48:05;;;;;;;7.60;3.20;;;6.80;99.40;;;;;;5091446;28;20416;-77
2023/04/30 00:50:32;;;;;;;3.45;2.80;;;6.80;99.30;;;;;;5110164;28;20142;-77
2023/04/30 00:53:01;;;;;;;5.28;2.90;;;6.90;99.10;;;;;;5108678;28;20058;-77
2023/04/30 00:55:29;;;;;;;3.95;2.45;;;6.90;99.20;;;;;;5108280;28;20058;-77
2023/04/30 00:57:56;;;;;;;7.63;3.42;;;6.90;99.20;;;;;;5107718;28;20519;-77
2023/04/30 01:00:25;;;;;;;4.88;3.08;;;6.90;99.10;;;;;;5109100;28;20044;-77
2023/04/30 01:02:53;;;;;;;3.55;2.67;;;7.00;99.10;;;;;;5108475;28;20112;-77
2023/04/30 01:05:21;;;;;;;7.88;2.47;;;7.00;99.20;;;;;;5108522;28;20519;-77
2023/04/30 01:07:49;;;;;;;3.72;2.50;;;7.00;98.80;;;;;;5110060;28;20142;-77
2023/04/30 01:10:16;;;;;;;3.08;2.42;;;7.10;98.50;;;;;;5110192;28;20122;-78
2023/04/30 01:12:53;;;;;;;6.05;3.08;;;7.10;98.30;;;;;;5108367;28;20043;-77
2023/04/30 01:15:28;;;;;;;3.28;2.05;;;7.10;98.20;;;;;;5108069;28;20047;-77
2023/04/30 01:18:04;;;;;;;5.07;2.58;;;7.10;97.90;;;;;;5110631;28;20091;-77
2023/04/30 01:20:33;;;;;;;3.50;2.55;;;7.20;97.50;;;;;;5108876;28;20054;-77
2023/04/30 01:23:14;;;;;;;6.15;2.55;;;7.20;97.50;;;;;;5110477;28;20043;-77
2023/04/30 01:25:53;;;;;;;5.82;2.80;;;7.20;97.30;;;;;;5109121;28;20087;-78
2023/04/30 01:28:23;;;;;;;3.25;2.25;;;7.20;97.00;;;;;;5110271;28;20126;-78
2023/04/30 01:30:54;;;;;;;2.88;2.45;;;7.30;96.90;;;;;;5093475;28;20486;-77
2023/04/30 01:33:21;;;;;;;3.72;2.30;;;7.30;96.80;;;;;;5121052;27;20053;-77
2023/04/30 01:36:13;;;;;;;4.00;2.63;;;7.30;96.80;;;;;;5111210;27;20073;-77
2023/04/30 01:39:01;;;;;;;3.22;2.58;;;7.30;96.80;;;;;;5080704;28;20561;-76
2023/04/30 01:41:33;;;;;;;4.78;2.40;;;7.30;97.10;;;;;;5090849;28;20157;-76
2023/04/30 01:44:24;;;;;;;2.63;2.22;;;7.30;97.00;;;;;;5081168;28;20051;-79
2023/04/30 01:47:04;;;;;;;4.05;2.80;;;7.40;97.20;;;;;;5107225;28;20054;-77
2023/04/30 01:49:43;;;;;;;4.65;2.72;;;7.40;97.20;;;;;;5108232;28;20046;-77
2023/04/30 01:52:19;;;;;;;7.00;2.85;;;7.40;97.70;;;;;;5110532;28;20051;-77
2023/04/30 01:54:52;;;;;;;4.10;2.88;;;7.40;97.80;;;;;;5105695;28;20058;-77
2023/04/30 01:57:25;;;;;;;6.72;3.28;;;7.40;98.10;;;;;;5083677;28;20040;-77
2023/04/30 01:59:54;;;;;;;;;;;7.40;98.30;;;;;;5090310;28;20340;-77
2023/04/30 02:02:21;;;;;;;6.20;2.90;;;7.50;98.70;;;;;;5109204;28;19923;-77
2023/04/30 02:04:48;;;;;;;5.07;2.60;;;7.50;99.00;;;;;;5108734;28;20574;-77
2023/04/30 02:07:36;;;;;;;6.50;2.85;;;7.40;99.30;;;;;;5108615;28;20066;-77
2023/04/30 02:10:05;;;;;;;5.90;3.00;;;7.40;99.60;;;;;;5106497;28;20092;-76
2023/04/30 02:12:32;;;;;;;3.80;3.00;;;7.40;99.90;;;;;;5105604;28;20533;-76
2023/04/30 02:15:01;;;;;;;6.35;3.63;;;7.40;99.90;;;;;;5105637;28;20058;-76
2023/04/30 02:17:28;;;;;;;6.18;3.00;;;7.50;99.90;;;;;;5107395;28;20055;-77
2023/04/30 02:19:55;;;;;;;6.32;2.53;;;7.50;99.90;;;;;;5096354;28;20079;-76
2023/04/30 02:22:22;;;;;;;5.03;2.50;;;7.50;99.90;;;;;;5071520;28;20656;-78
2023/04/30 02:24:50;;;;;;;2.95;2.10;;;7.50;99.90;;;;;;5105134;28;20410;-76
2023/04/30 02:27:17;;;;;;;4.70;2.47;;;7.50;99.90;;;;;;5101030;28;20055;-76
2023/04/30 02:29:45;;;;;;;4.30;2.60;;;7.50;99.90;;;;;;5071848;28;20071;-77
2023/04/30 02:32:14;;;;;;;3.60;2.70;;;7.50;99.90;;;;;;5102705;28;20044;-78
2023/04/30 02:34:42;;;;;;;4.45;2.50;;;7.50;99.90;;;;;;5109459;28;20058;-77
2023/04/30 02:37:10;;;;;;;5.70;2.58;;;7.50;99.90;;;;;;5091684;28;20047;-78
2023/04/30 02:39:38;;;;;;;2.95;1.92;;;7.60;99.90;;;;;;5100890;28;20043;-78
2023/04/30 02:42:05;;;;;;;3.38;2.28;;;7.50;99.90;;;;;;5107122;28;20040;-77
2023/04/30 02:44:33;;;;;;;7.05;1.83;;;7.50;99.90;;;;;;5108664;28;20055;-77
2023/04/30 02:47:01;;;;;;;4.93;2.00;;;7.50;99.90;;;;;;5095571;28;20063;-76
2023/04/30 02:49:29;;;;;;;2.00;1.77;;;7.50;99.90;;;;;;5086832;28;20052;-76
2023/04/30 02:51:57;;;;;;;4.57;2.20;;;7.50;99.90;;;;;;5109205;28;20105;-76
2023/04/30 02:54:24;;;;;;;3.80;2.40;;;7.50;99.90;;;;;;5090436;28;20035;-76
2023/04/30 02:56:51;;;;;;;2.80;1.80;;;7.50;99.90;;;;;;5108985;28;20051;-76
2023/04/30 02:59:19;;;;;;;3.47;2.03;;;7.50;99.90;;;;;;5107402;28;20032;-77
2023/04/30 03:01:46;;;;;;;3.22;2.20;;;7.40;99.90;;;;;;5105962;28;20171;-77
2023/04/30 03:04:13;;;;;;;2.97;2.20;;;7.40;99.90;;;;;;5088701;28;20047;-76
2023/04/30 03:06:42;;;;;;;3.17;2.03;;;7.40;99.90;;;;;;5085815;28;20047;-76
2023/04/30 03:09:11;;;;;;;3.38;1.90;;;7.30;99.90;;;;;;5106943;28;20578;-77
2023/04/30 03:11:38;;;;;;;3.45;1.92;;;7.40;99.90;;;;;;5106533;28;20078;-77
2023/04/30 03:14:05;;;;;;;5.43;2.08;;;7.40;99.90;;;;;;5108792;28;20047;-76
2023/04/30 03:16:33;;;;;;;5.20;2.08;;;7.40;99.90;;;;;;5109511;28;20040;-77
2023/04/30 03:19:00;;;;;;;4.43;1.73;;;7.40;99.90;;;;;;5106694;28;20134;-77
2023/04/30 03:21:27;;;;;;;2.40;1.70;;;7.40;99.90;;;;;;5106952;28;20044;-76
2023/04/30 03:23:56;;;;;;;1.55;1.23;;;7.40;99.90;;;;;;5106679;28;20040;-76
2023/04/30 03:26:24;;;;;;;3.28;1.63;;;7.50;99.90;;;;;;5107082;28;20399;-78
2023/04/30 03:28:53;;;;;;;3.80;1.63;;;7.50;99.90;;;;;;5104886;28;20054;-76
2023/04/30 03:31:21;;;;;;;2.10;1.50;;;7.50;99.90;;;;;;5104781;28;20048;-76
2023/04/30 03:33:48;;;;;;;2.20;1.50;;;7.50;99.90;;;;;;5109580;28;20048;-77
2023/04/30 03:36:16;;;;;;;5.35;1.65;;;7.60;99.90;;;;;;5109071;28;20058;-77
2023/04/30 03:38:43;;;;;;;5.60;1.58;;;7.70;99.90;;;;;;5105901;28;20099;-77
2023/04/30 03:41:13;;;;;;;3.08;1.90;;;7.70;99.90;;;;;;5079080;28;20504;-76
2023/04/30 03:43:40;;;;;;;4.07;1.92;;;7.80;99.90;;;;;;5103127;28;20058;-77
2023/04/30 03:46:08;;;;;;;8.25;2.00;;;7.80;99.90;;;;;;5108262;28;20051;-77
2023/04/30 03:48:35;;;;;;;1.90;1.38;;;7.90;99.90;;;;;;5106535;28;20526;-76
2023/04/30 03:51:02;;;;;;;2.40;1.60;;;7.90;99.90;;;;;;5106235;28;20097;-77
2023/04/30 03:53:29;;;;;;;4.60;1.90;;;8.00;99.90;;;;;;5108623;28;20047;-77
2023/04/30 03:55:57;;;;;;;3.55;1.67;;;8.10;99.90;;;;;;5086421;28;20071;-77
2023/04/30 03:58:26;;;;;;;4.93;2.00;;;8.10;99.90;;;;;;5091801;28;20102;-80
2023/04/30 04:00:53;;;;;;;6.57;1.63;;;8.20;99.90;;;;;;5108598;28;20140;-81
2023/04/30 04:03:22;;;;;;;6.60;2.00;;;8.30;99.90;;;;;;5110228;28;20039;-81
2023/04/30 04:05:49;;;;;;;5.13;2.47;;;8.30;99.90;;;;;;5111346;28;20075;-81
2023/04/30 04:08:16;;;;;;;2.38;1.73;;;8.40;99.90;;;;;;5103159;28;20447;-82
2023/04/30 04:10:44;;;;;;;4.63;2.38;;;8.40;99.90;;;;;;5106477;28;20040;-81
2023/04/30 04:13:11;;;;;;;5.50;2.15;;;8.50;99.90;;;;;;5100400;28;20052;-81
2023/04/30 04:15:40;;;;;;;4.20;1.92;;;8.60;99.70;;;;;;5085266;28;20427;-82
2023/04/30 04:18:07;;;;;;;11.27;2.35;;;8.70;99.20;;;;;;5088468;28;20557;-80
2023/04/30 04:20:35;;;;;;;6.47;2.40;;;8.80;98.90;;;;;;5107334;28;20514;-80
2023/04/30 04:23:03;;;;;;;2.63;1.73;;;8.80;98.30;;;;;;5109150;28;20578;-80
2023/04/30 04:25:32;;;;;;;5.45;1.65;;;8.80;98.10;;;;;;5111649;28;20054;-80
2023/04/30 04:27:59;;;;;;;2.85;2.15;;;8.80;97.90;;;;;;5092966;28;20422;-80
2023/04/30 04:30:27;;;;;;;2.20;2.00;;;8.90;97.90;;;;;;5108483;28;20052;-81
2023/04/30 04:32:56;;;;;;;4.05;1.60;;;9.00;97.50;;;;;;5088767;28;20044;-81
2023/04/30 04:35:23;;;;;;;4.05;1.90;;;9.10;96.90;;;;;;5110948;28;20043;-80
2023/04/30 04:37:51;;;;;;;3.83;1.90;;;9.20;96.40;;;;;;5111436;28;20047;-81
2023/04/30 04:40:18;;;;;;;3.15;1.83;;;9.40;96.10;;;;;;5091463;28;20053;-81
2023/04/30 04:42:45;;;;;;;5.32;2.35;;;9.60;95.60;;;;;;5109645;28;20480;-81
2023/04/30 04:45:14;;;;;;;9.75;2.90;;;9.70;94.90;;;;;;5109687;28;20522;-80
2023/04/30 04:47:42;;;;;;;6.47;2.53;;;9.80;94.20;;;;;;5105223;28;20048;-80
2023/04/30 04:50:11;;;;;;;5.38;2.22;;;9.90;93.80;;;;;;5106615;28;20055;-81
2023/04/30 04:52:39;;;;;;;7.55;2.00;;;9.90;93.70;;;;;;5080829;28;20044;-81
2023/04/30 04:55:07;;;;;;;7.38;2.10;;;10.00;93.50;;;;;;5085448;28;20054;-77
2023/04/30 04:57:35;;;;;;;7.07;2.30;;;10.10;93.10;;;;;;5089438;28;20474;-80
2023/04/30 05:00:05;;;;;;;2.85;2.03;;;10.30;92.70;;;;;;5088966;28;20423;-80
2023/04/30 05:02:33;;;;;;;13.90;2.72;;;10.40;92.00;;;;;;5082706;28;20047;-82
2023/04/30 05:05:01;;;;;;;2.88;1.58;;;10.50;92.00;;;;;;5105847;28;20051;-76
2023/04/30 05:07:33;;;;;;;2.97;1.83;;;10.80;91.20;;;;;;5109067;28;20058;-78
2023/04/30 05:10:01;;;;;;;4.40;2.53;;;10.90;90.70;;;;;;5105663;28;20052;-80
2023/04/30 05:12:30;;;;;;;8.93;2.35;;;10.90;90.00;;;;;;5111578;28;20483;-76
2023/04/30 05:14:58;;;;;;;12.40;2.67;;;10.90;90.10;;;;;;5109585;28;20059;-77
2023/04/30 05:17:25;;;;;;;6.15;1.83;;;10.90;89.90;;;;;;5108737;28;20059;-78
2023/04/30 05:19:53;;;;;;;8.93;2.08;;;11.00;88.70;;;;;;5109350;28;20043;-79
2023/04/30 05:22:20;;;;;;;10.35;2.17;;;11.10;87.20;;;;;;5109291;28;20105;-79
2023/04/30 05:24:51;;;;;;;5.15;1.95;;;11.20;87.10;;;;;;5106691;28;20052;-79
2023/04/30 05:27:21;;;;;;;8.23;1.85;;;11.50;85.70;;;;;;5109975;28;20055;-78
2023/04/30 05:29:49;;;;;;;3.50;1.80;;;11.90;84.50;;;;;;5108785;28;20326;-78
2023/04/30 05:32:16;;;;;;;8.82;1.80;;;12.10;82.60;;;;;;5097522;28;20074;-78
2023/04/30 05:34:44;;;;;;;16.23;2.15;;;12.10;81.10;;;;;;5107332;28;20170;-78
2023/04/30 05:37:13;;;;;;;3.20;1.60;;;11.90;81.20;;;;;;5099448;27;20493;-81
2023/04/30 05:39:40;;;;;;;5.78;1.80;;;11.70;81.60;;;;;;5085354;28;20042;-82
2023/04/30 05:42:09;;;;;;;7.03;1.88;;;11.50;82.50;;;;;;5106924;28;20210;-81
2023/04/30 05:44:36;;;;;;;3.75;1.95;;;11.30;83.00;;;;;;5100059;28;20052;-81
2023/04/30 05:47:03;;;;;;;6.13;2.45;;;11.20;83.80;;;;;;5101996;28;20051;-80
2023/04/30 05:49:30;;;;;;;7.00;1.90;;;11.10;84.30;;;;;;5109283;28;20047;-81
2023/04/30 05:51:58;;;;;;;9.05;2.13;;;11.10;84.70;;;;;;5105077;27;20134;-81
2023/04/30 05:54:25;;;;;;;4.43;1.90;;;11.10;85.10;;;;;;5106708;28;20508;-80
2023/04/30 05:56:52;;;;;;;4.55;2.10;;;11.20;84.80;;;;;;5094685;28;20048;-82
2023/04/30 05:59:21;;;;;;;7.47;2.03;;;11.20;84.70;;;;;;5103590;28;20101;-81
2023/04/30 06:01:49;;;;;;;4.75;2.08;;;11.30;84.50;;;;;;5106215;28;20047;-80
2023/04/30 06:04:32;;;;;;;11.75;2.13;;;11.70;83.90;;;;;;5103725;28;20044;-80
2023/04/30 06:07:00;;;;;;;9.98;2.78;;;12.10;81.90;;;;;;5100276;28;20083;-82
2023/04/30 06:09:27;;;;;;;4.60;2.00;;;12.10;81.40;;;;;;5098343;28;20056;-81
2023/04/30 06:11:55;;;;;;;11.38;2.55;;;12.10;81.60;;;;;;5101683;28;20044;-82
2023/04/30 06:14:24;;;;;;;6.57;2.20;;;12.10;81.30;;;;;;5103749;28;20047;-82
2023/04/30 06:16:52;;;;;;;5.53;2.28;;;12.10;81.10;;;;;;5107721;28;20132;-81
2023/04/30 06:19:19;;;;;;;6.90;2.38;;;12.10;81.40;;;;;;5102446;28;20097;-82
2023/04/30 06:21:52;;;;;;;5.53;2.05;;;12.20;80.90;;;;;;5081654;28;20100;-85
2023/04/30 06:24:19;;;;;;;6.50;2.10;;;12.30;80.70;;;;;;5104486;28;20047;-85
2023/04/30 06:26:47;;;;;;;7.85;2.55;;;12.50;80.10;;;;;;5106546;28;20107;-85
2023/04/30 06:29:14;;;;;;;6.20;2.88;;;13.00;78.60;;;;;;5103315;28;20047;-85
2023/04/30 06:31:43;;;;;;;8.70;2.00;;;13.40;77.20;;;;;;5096938;28;20059;-83
2023/04/30 06:34:10;;;;;;;2.45;1.75;;;13.90;75.30;;;;;;5078276;28;20051;-83
2023/04/30 06:36:37;;;;;;;6.00;2.15;;;14.00;73.80;;;;;;5103776;28;20461;-82
2023/04/30 06:39:05;;;;;;;6.53;2.70;;;13.80;73.50;;;;;;5100162;28;20150;-82
2023/04/30 06:41:36;;;;;;;3.88;1.70;;;13.70;74.20;;;;;;5105436;27;20531;-81
2023/04/30 06:44:11;;;;;;;7.22;1.75;;;14.10;73.60;;;;;;5093144;28;20052;-83
2023/04/30 06:46:39;;;;;;;3.00;2.35;;;14.60;72.20;;;;;;5099357;28;20044;-81
2023/04/30 06:49:08;;;;;;;3.28;2.25;;;15.00;70.80;;;;;;5106248;28;20059;-78
2023/04/30 06:51:35;;;;;;;5.70;1.95;;;15.70;68.70;;;;;;5108351;28;20051;-80
2023/04/30 06:54:02;;;;;;;4.78;2.13;;;16.80;65.60;;;;;;5107471;28;20051;-82
2023/04/30 06:56:30;;;;;;;9.18;2.72;;;17.60;63.00;;;;;;5082255;28;20044;-81
2023/04/30 06:58:58;;;;;;;7.03;1.80;;;18.50;59.90;;;;;;5102555;28;20142;-79
2023/04/30 07:01:25;;;;;;;7.90;2.38;;;19.10;57.20;;;;;;5103186;28;20139;-81
2023/04/30 07:03:53;;;;;;;5.22;2.42;;;19.40;56.10;;;;;;5105551;28;20052;-80
2023/04/30 07:06:25;;;;;;;8.77;2.22;;;19.50;55.10;;;;;;5092616;28;20052;-81
2023/04/30 07:08:53;;;;;;;6.05;1.80;;;19.90;53.80;;;;;;5104336;28;20058;-79
2023/04/30 07:11:20;;;;;;;3.50;2.15;;;19.70;53.30;;;;;;5085373;28;20629;-80
2023/04/30 07:13:47;;;;;;;11.05;2.22;;;19.40;53.50;;;;;;5108011;28;20059;-81
2023/04/30 07:16:15;;;;;;;4.68;2.03;;;19.20;53.50;;;;;;5107187;28;20046;-80
2023/04/30 07:18:43;;;;;;;4.38;1.85;;;18.80;54.40;;;;;;5088232;28;20054;-80
2023/04/30 07:21:10;;;;;;;6.03;2.40;;;18.50;54.60;;;;;;5106228;28;20039;-80
2023/04/30 07:23:39;;;;;;;9.50;2.20;;;18.00;55.30;;;;;;5110522;28;20151;-79
2023/04/30 07:26:06;;;;;;;11.43;2.47;;;17.00;57.00;;;;;;5111761;28;20130;-82
2023/04/30 07:28:34;;;;;;;6.93;2.60;;;16.40;58.60;;;;;;5111917;28;20040;-81
2023/04/30 07:31:01;;;;;;;15.85;3.60;;;15.80;59.60;;;;;;5104645;28;20134;-78
2023/04/30 07:33:29;;;;;;;9.45;3.08;;;15.10;61.20;;;;;;5115342;27;20043;-80
2023/04/30 07:35:57;;;;;;;4.72;2.63;;;14.60;63.00;;;;;;5121101;28;20048;-81
2023/04/30 07:38:24;;;;;;;6.63;2.50;;;14.10;65.00;;;;;;5123313;28;20158;-80
2023/04/30 07:40:53;;;;;;;10.32;2.72;;;13.70;66.20;;;;;;5112401;28;20046;-78
2023/04/30 07:43:23;;;;;;;10.07;2.97;;;13.40;67.60;;;;;;5100991;28;20043;-80
2023/04/30 07:45:52;;;;;;;10.90;2.88;;;13.10;68.70;;;;;;5110990;28;20067;-79
2023/04/30 07:48:20;;;;;;;4.65;2.92;;;12.90;74.00;;;;;;5103705;27;20070;-80
2023/04/30 07:50:48;;;;;;;8.77;3.70;;;12.70;77.20;;;;;;5105267;27;20048;-78
2023/04/30 07:53:15;;;;;;;6.75;3.38;;;12.60;77.30;;;;;;5106582;27;20067;-82
2023/04/30 07:55:43;;;;;;;7.32;2.72;;;12.70;76.90;;;;;;5101182;28;20040;-81
2023/04/30 07:58:11;;;;;;;3.78;3.10;;;12.70;77.20;;;;;;5108868;28;20043;-83
2023/04/30 08:00:39;;;;;;;2.63;2.28;;;12.80;76.80;;;;;;5113441;27;20139;-80
2023/04/30 08:03:10;;;;;;;5.25;2.90;;;12.80;77.30;;;;;;5108649;27;20040;-80
2023/04/30 08:05:37;;;;;;;8.57;3.20;;;12.90;77.70;;;;;;5119864;27;20035;-80
2023/04/30 08:08:05;;;;;;;9.93;3.22;;;12.90;77.50;;;;;;5115374;27;20051;-81
2023/04/30 08:10:32;;;;;;;8.50;3.13;;;12.90;80.00;;;;;;5106293;28;20101;-83
2023/04/30 08:13:00;;;;;;;4.93;2.25;;;12.80;82.50;;;;;;5109883;28;20039;-80
2023/04/30 08:15:34;;;;;;;5.53;3.60;;;12.60;83.40;;;;;;5111708;28;20044;-80
2023/04/30 08:18:05;;;;;;;4.57;2.40;;;12.40;85.00;;;;;;5082844;28;20151;-79
2023/04/30 08:20:33;;;;;;;6.20;2.80;;;12.20;86.60;;;;;;5091805;28;20100;-81
2023/04/30 08:23:00;;;;;;;7.32;2.78;;;12.10;89.60;;;;;;5090696;28;20044;-85
2023/04/30 08:25:30;;;;;;;4.75;2.83;;;11.90;90.00;;;;;;5105899;28;20054;-80
2023/04/30 08:27:57;;;;;;;4.78;2.72;;;11.90;90.20;;;;;;5102913;28;20055;-77
2023/04/30 08:30:41;;;;;;;4.13;2.67;;;11.90;90.00;;;;;;5095579;28;20071;-84
2023/04/30 08:33:08;;;;;;;3.50;2.50;;;11.80;90.50;;;;;;5108666;27;20075;-81
2023/04/30 08:35:35;;;;;;;4.18;2.60;;;11.90;90.40;;;;;;5090614;28;20503;-79
2023/04/30 08:38:02;;;;;;;4.40;2.70;;;12.00;90.40;;;;;;5102231;28;20198;-79
2023/04/30 08:40:32;;;;;;;9.35;2.88;;;12.00;90.30;;;;;;5100039;28;20415;-80
2023/04/30 08:43:05;;;;;;;2.75;2.50;;;12.20;90.20;;;;;;5091856;28;20549;-81
2023/04/30 08:45:33;;;;;;;3.20;2.25;;;12.40;90.30;;;;;;5109248;27;20090;-79
2023/04/30 08:48:03;;;;;;;4.20;2.95;;;12.50;89.30;;;;;;5100293;28;20051;-80
2023/04/30 08:50:31;;;;;;;4.72;2.70;;;12.50;89.20;;;;;;5076376;28;20571;-80
2023/04/30 08:53:00;;;;;;;4.75;2.45;;;12.40;90.00;;;;;;5106291;27;20044;-78
2023/04/30 08:55:27;;;;;;;6.95;3.15;;;12.30;90.40;;;;;;5104791;27;20055;-79
2023/04/30 08:58:01;;;;;;;6.38;3.22;;;12.50;91.00;;;;;;5107748;28;20159;-79
2023/04/30 09:00:32;;;;;;;6.13;3.05;;;12.60;91.50;;;;;;5111767;27;20058;-80
2023/04/30 09:03:12;;;;;;;7.20;3.22;;;12.50;92.10;;;;;;5101601;28;20040;-79
2023/04/30 09:05:40;;;;;;;11.25;3.63;;;12.30;93.30;;;;;;5101763;28;20047;-81
2023/04/30 09:08:08;;;;;;;7.22;3.80;;;12.10;94.90;;;;;;5108105;27;20434;-81
2023/04/30 09:10:36;;;;;;;8.10;3.67;;;12.00;96.30;;;;;;5096964;27;20048;-84
2023/04/30 09:13:05;;;;;;;6.10;3.53;;;11.90;98.00;;;;;;5081121;28;20315;-82
2023/04/30 09:15:34;;;;;;;5.03;3.28;;;11.80;99.90;;;;;;5102831;28;20142;-80
2023/04/30 09:18:15;;;;;;;7.28;3.60;;;11.70;99.90;;;;;;5106273;27;20051;-79
2023/04/30 09:20:55;;;;;;;8.15;4.28;;;11.40;99.90;;;;;;5100119;28;20145;-77
2023/04/30 09:23:23;;;;;;;5.18;3.45;;;11.10;99.90;;;;;;5101691;28;20047;-80
2023/04/30 09:25:50;;;;;;;4.55;3.33;;;10.80;99.90;;;;;;5104735;28;20451;-78
2023/04/30 09:28:22;;;;;;;8.32;4.20;;;10.60;99.90;;;;;;5107957;28;20093;-77
2023/04/30 09:30:50;;;;;;;3.90;3.45;;;10.40;99.90;;;;;;5105361;28;20043;-78
2023/04/30 09:33:19;;;;;;;5.68;4.28;;;10.30;99.90;;;;;;5089365;28;20056;-78
2023/04/30 09:35:54;;;;;;;6.65;4.93;;;10.30;99.90;;;;;;5094989;28;20343;-80
2023/04/30 09:38:29;;;;;;;10.30;4.63;;;10.40;99.90;;;;;;5110602;28;20681;-77
2023/04/30 09:40:59;;;;;;;6.75;5.03;;;10.50;99.90;;;;;;5103751;28;20143;-78
2023/04/30 09:43:27;;;;;;;8.00;4.43;;;10.40;99.90;;;;;;5107951;28;20095;-78
2023/04/30 09:45:54;;;;;;;6.47;4.75;;;10.20;99.90;;;;;;5088599;28;20116;-79
2023/04/30 09:48:24;;;;;;;4.50;3.95;;;10.00;99.90;;;;;;5103975;28;20087;-77
2023/04/30 09:50:51;;;;;;;5.88;4.03;;;9.90;99.90;;;;;;5101377;28;20052;-78
2023/04/30 09:53:20;;;;;;;4.10;3.67;;;9.80;99.90;;;;;;5101204;28;20093;-79
2023/04/30 09:55:50;;;;;;;5.80;4.50;;;9.80;99.90;;;;;;5104599;27;20514;-79
2023/04/30 09:58:27;;;;;;;5.13;3.63;;;9.80;99.90;;;;;;5103661;28;20036;-79
2023/04/30 10:00:58;;;;;;;5.72;4.03;;;9.80;99.90;;;;;;5102560;28;20048;-78
2023/04/30 10:03:29;;;;;;;9.85;4.63;;;9.90;99.90;;;;;;5099291;27;20055;-78
2023/04/30 10:05:58;;;;;;;8.85;4.85;;;9.90;99.90;;;;;;5107142;28;20515;-79
2023/04/30 10:08:28;;;;;;;9.27;4.60;;;9.90;99.90;;;;;;5107504;28;20048;-79
2023/04/30 10:11:00;;;;;;;5.55;4.38;;;9.80;99.90;;;;;;5095987;28;20055;-79
2023/04/30 10:13:32;;;;;;;10.57;4.83;;;9.70;99.90;;;;;;5097608;28;20048;-77
2023/04/30 10:16:02;;;;;;;6.28;4.53;;;9.60;99.90;;;;;;5106652;28;20289;-78
2023/04/30 10:18:37;;;;;;;7.95;4.28;;;9.60;99.90;;;;;;5102639;28;20119;-78
2023/04/30 10:21:10;;;;;;;7.70;4.32;;;9.50;99.90;;;;;;5106938;28;20056;-77
2023/04/30 10:23:40;;;;;;;8.18;5.00;;;9.50;99.90;;;;;;5095532;28;20051;-78
2023/04/30 10:26:09;;;;;;;5.25;4.25;;;9.50;99.90;;;;;;5109604;28;20073;-79
2023/04/30 10:28:37;;;;;;;3.75;3.08;;;9.50;99.90;;;;;;5102700;28;20040;-78
2023/04/30 10:31:06;;;;;;;6.05;4.15;;;9.40;99.90;;;;;;5104263;28;20058;-79
2023/04/30 10:33:48;;;;;;;7.28;4.55;;;9.40;99.90;;;;;;5105251;28;20043;-79
2023/04/30 10:36:26;;;;;;;7.17;4.10;;;9.40;99.90;;;;;;5104905;28;20158;-82
2023/04/30 10:38:54;;;;;;;7.25;4.07;;;9.40;99.90;;;;;;5103352;28;20096;-81
2023/04/30 10:41:22;;;;;;;6.75;4.22;;;9.40;99.90;;;;;;5099896;28;20559;-81
2023/04/30 10:43:49;;;;;;;5.35;4.28;;;9.40;99.90;;;;;;5101842;28;20104;-81
2023/04/30 10:46:27;;;;;;;8.20;3.92;;;9.40;99.90;;;;;;5087900;28;20526;-81
2023/04/30 10:49:09;;;;;;;5.25;4.10;;;9.30;99.90;;;;;;5098485;28;20462;-80
2023/04/30 10:51:50;;;;;;;6.82;3.92;;;9.30;99.90;;;;;;5109412;28;20043;-79
2023/04/30 10:54:25;;;;;;;4.20;3.72;;;9.20;99.90;;;;;;5108491;28;20067;-81
2023/04/30 10:57:11;;;;;;;9.65;4.32;;;9.20;99.90;;;;;;5109871;28;20048;-80
2023/04/30 10:59:43;;;;;;;9.00;4.35;;;9.20;99.90;;;;;;5109606;28;20044;-80
2023/04/30 11:02:11;;;;;;;6.07;4.40;;;9.20;99.90;;;;;;5133857;27;20079;-80
2023/04/30 11:05:17;;;;;;;4.82;4.40;;;9.10;99.90;;;;;;5104949;27;20039;-78
2023/04/30 11:08:05;;;;;;;5.43;4.15;;;9.00;99.90;;;;;;5097918;27;20059;-80
2023/04/30 11:10:40;;;;;;;7.88;3.63;;;9.00;99.90;;;;;;5103288;28;20067;-80
2023/04/30 11:13:15;;;;;;;6.55;3.88;;;8.90;99.90;;;;;;5103300;27;20051;-79
2023/04/30 11:15:46;;;;;;;7.53;4.32;;;8.90;99.90;;;;;;5101938;28;20055;-79
2023/04/30 11:18:13;;;;;;;10.02;5.00;;;8.70;99.90;;;;;;5091739;28;20096;-81
2023/04/30 11:20:41;;;;;;;4.55;3.92;;;8.70;99.90;;;;;;5101338;28;20135;-79
2023/04/30 11:23:11;;;;;;;7.18;4.22;;;8.60;99.90;;;;;;5084213;28;20068;-81
2023/04/30 11:25:43;;;;;;;11.40;5.10;;;8.50;99.90;;;;;;5103299;28;20048;-81
2023/04/30 11:28:16;;;;;;;7.75;4.95;;;8.40;99.90;;;;;;5107430;28;20044;-79
2023/04/30 11:30:56;;;;;;;7.43;5.00;;;8.40;99.90;;;;;;5102467;28;20048;-78
2023/04/30 11:33:25;;;;;;;4.97;4.40;;;8.50;99.90;;;;;;5099647;28;20040;-80
2023/04/30 11:35:54;;;;;;;9.20;4.72;;;8.40;99.90;;;;;;5111289;27;20047;-83
2023/04/30 11:38:32;;;;;;;5.13;4.18;;;8.40;99.90;;;;;;5112302;28;20048;-82
2023/04/30 11:41:01;;;;;;;4.78;3.83;;;8.40;99.90;;;;;;5111365;28;20059;-78
2023/04/30 11:43:32;;;;;;;5.18;3.67;;;8.50;99.90;;;;;;5112989;28;20062;-83
2023/04/30 11:46:09;;;;;;;5.85;4.45;;;8.50;99.90;;;;;;5107182;28;20504;-83
2023/04/30 11:48:38;;;;;;;4.65;3.42;;;8.50;99.90;;;;;;5092582;28;20093;-83
2023/04/30 11:51:25;;;;;;;4.57;3.83;;;8.50;99.90;;;;;;5097139;28;20044;-82
2023/04/30 11:53:56;;;;;;;4.47;3.10;;;8.60;99.90;;;;;;5110917;28;20051;-82
2023/04/30 11:56:26;;;;;;;5.95;3.20;;;8.70;99.90;;;;;;5109735;27;20044;-82
2023/04/30 11:58:54;;;;;;;5.03;3.97;;;8.80;99.90;;;;;;5111965;28;20078;-80
2023/04/30 12:01:44;;;;;;;3.75;3.28;;;9.00;99.90;;;;;;5089465;28;20140;-82
2023/04/30 12:04:14;;;;;;;4.13;3.28;;;9.10;99.90;;;;;;5090231;27;20113;-79
2023/04/30 12:06:41;;;;;;;4.18;3.40;;;9.20;99.90;;;;;;5093835;28;20048;-81
2023/04/30 12:09:11;;;;;;;3.67;2.75;;;9.20;99.90;;;;;;5089369;28;20048;-82
2023/04/30 12:11:39;;;;;;;3.63;3.33;;;9.30;99.90;;;;;;5122840;27;20096;-79
2023/04/30 12:14:09;;;;;;;3.80;3.40;;;9.40;99.90;;;;;;5112213;28;20044;-80
2023/04/30 12:16:42;;;;;;;4.97;2.50;;;9.40;99.90;;;;;;5097278;28;20091;-82
2023/04/30 12:19:10;;;;;;;3.33;2.60;;;9.50;99.90;;;;;;5109867;28;20054;-81
2023/04/30 12:21:39;;;;;;;3.75;2.72;;;9.50;99.90;;;;;;5108150;28;20055;-79
2023/04/30 12:24:07;;;;;;;5.38;3.08;;;9.40;99.90;;;;;;5103168;28;20055;-79
2023/04/30 12:26:39;;;;;;;6.10;2.80;;;9.40;99.90;;;;;;5102740;28;20056;-79
2023/04/30 12:29:09;;;;;;;3.55;3.13;;;9.40;99.90;;;;;;5105390;28;20051;-78
2023/04/30 12:31:38;;;;;;;5.80;3.55;;;9.50;99.90;;;;;;5106549;28;20040;-80
2023/04/30 12:34:06;;;;;;;4.63;3.38;;;9.60;99.90;;;;;;5088184;28;20048;-79
2023/04/30 12:36:35;;;;;;;4.45;3.45;;;9.70;99.90;;;;;;5100670;28;20046;-78
2023/04/30 12:39:07;;;;;;;4.78;3.28;;;9.70;99.90;;;;;;5101068;28;20036;-78
2023/04/30 12:41:41;;;;;;;5.60;3.10;;;9.70;99.90;;;;;;5103060;28;20048;-77
2023/04/30 12:44:19;;;;;;;4.68;3.53;;;9.80;99.90;;;;;;5105141;28;20047;-81
2023/04/30 12:46:47;;;;;;;4.25;3.35;;;9.70;99.90;;;;;;5102394;28;20120;-82
2023/04/30 12:49:24;;;;;;;3.63;3.15;;;9.70;99.90;;;;;;5103982;28;20450;-80
2023/04/30 12:51:56;;;;;;;3.55;3.17;;;9.70;99.90;;;;;;5084723;28;20176;-82
2023/04/30 12:54:30;;;;;;;4.43;3.13;;;9.70;99.90;;;;;;5101372;28;20042;-81
2023/04/30 12:57:03;;;;;;;3.35;3.00;;;9.70;99.90;;;;;;5103469;28;20044;-80
2023/04/30 12:59:53;;;;;;;2.95;2.60;;;9.60;99.90;;;;;;5103394;28;20044;-79
2023/04/30 13:02:32;;;;;;;4.13;3.05;;;9.60;99.90;;;;;;5096360;28;20047;-83
2023/04/30 13:05:02;;;;;;;7.97;3.17;;;9.60;99.90;;;;;;5099358;28;20039;-82
2023/04/30 13:07:38;;;;;;;3.42;3.10;;;9.60;99.90;;;;;;5102882;28;20046;-80